createdAt,value
2022-10-31T00:00:19.655Z,97673.91
2022-10-31T00:03:21.389Z,97673.75
2022-10-31T00:06:23.691Z,97668.25
2022-10-31T00:09:25.245Z,97673.75
2022-10-31T00:12:27.755Z,97667.44
2022-10-31T00:15:29.239Z,97665.16
2022-10-31T00:18:31.095Z,97671.09
2022-10-31T00:21:33.464Z,97665.81
2022-10-31T00:24:35.068Z,97671.41
2022-10-31T00:27:36.585Z,97672.09
2022-10-31T00:30:38.137Z,97665.31
2022-10-31T00:33:40.830Z,97661.34
2022-10-31T00:36:42.359Z,97663.50
2022-10-31T00:39:49.935Z,97665.16
2022-10-31T00:42:51.493Z,97654.59
2022-10-31T00:45:53.198Z,97658.88
2022-10-31T00:48:55.220Z,97658.88
2022-10-31T00:51:56.827Z,97656.06
2022-10-31T00:54:58.429Z,97655.56
2022-10-31T00:58:00.344Z,97661.53
2022-10-31T01:01:02.304Z,97664.34
2022-10-31T01:04:03.962Z,97660.03
2022-10-31T01:07:07.987Z,97655.75
2022-10-31T01:10:11.031Z,97651.44
2022-10-31T01:13:12.604Z,97648.63
2022-10-31T01:16:16.673Z,97652.59
2022-10-31T01:19:18.125Z,97653.41
2022-10-31T01:22:19.644Z,97641.38
2022-10-31T01:25:21.176Z,97633.47
2022-10-31T01:31:33.791Z,97653.44
2022-10-31T01:34:35.305Z,97636.91
2022-10-31T01:37:37.120Z,97643.03
2022-10-31T01:40:38.627Z,97636.41
2022-10-31T01:43:44.228Z,97634.75
2022-10-31T01:46:49.345Z,97637.22
2022-10-31T01:49:55.827Z,97636.09
2022-10-31T01:52:58.639Z,97635.91
2022-10-31T01:56:01.087Z,97630.81
2022-10-31T01:59:06.203Z,97627.16
2022-10-31T02:02:09.220Z,97625.34
2022-10-31T02:05:15.633Z,97625.19
2022-10-31T02:08:23.930Z,97625.84
2022-10-31T02:11:26.438Z,97625.69
2022-10-31T02:14:31.430Z,97626.84
2022-10-31T02:17:34.075Z,97624.84
2022-10-31T02:20:49.081Z,97615.44
2022-10-31T02:23:59.309Z,97617.25
2022-10-31T02:27:24.996Z,97611.78
2022-10-31T02:30:51.790Z,97617.25
2022-10-31T02:33:58.644Z,97610.31
2022-10-31T02:37:09.357Z,97612.97
2022-10-31T02:40:22.770Z,97611.97
2022-10-31T02:44:04.805Z,97607.69
2022-10-31T02:47:12.962Z,97610.00
2022-10-31T02:50:25.098Z,97602.72
2022-10-31T02:53:27.098Z,97598.09
2022-10-31T02:56:28.642Z,97595.44
2022-10-31T02:59:33.991Z,97600.88
2022-10-31T03:03:14.186Z,97598.59
2022-10-31T03:06:38.662Z,97596.75
2022-10-31T03:10:05.781Z,97597.13
2022-10-31T03:13:13.504Z,97594.13
2022-10-31T03:16:28.526Z,97591.34
2022-10-31T03:19:35.324Z,97594.47
2022-10-31T03:22:40.607Z,97590.81
2022-10-31T03:25:43.115Z,97587.19
2022-10-31T03:28:49.779Z,97584.22
2022-10-31T03:32:01.444Z,97581.91
2022-10-31T03:35:06.205Z,97583.56
2022-10-31T03:38:09.070Z,97577.13
2022-10-31T03:41:19.614Z,97575.81
2022-10-31T03:44:22.827Z,97581.41
2022-10-31T03:47:33.308Z,97585.41
2022-10-31T03:51:04.141Z,97577.97
2022-10-31T03:54:26.188Z,97584.56
2022-10-31T03:57:30.450Z,97580.91
2022-10-31T04:00:34.805Z,97578.25
2022-10-31T04:03:38.616Z,97572.84
2022-10-31T04:06:45.136Z,97572.00
2022-10-31T04:09:48.701Z,97565.56
2022-10-31T04:12:59.916Z,97567.03
2022-10-31T04:16:11.359Z,97557.66
2022-10-31T04:19:16.185Z,97566.88
2022-10-31T04:22:17.872Z,97562.13
2022-10-31T04:25:19.374Z,97564.91
2022-10-31T04:28:21.951Z,97559.78
2022-10-31T04:31:23.534Z,97559.47
2022-10-31T04:34:25.335Z,97559.97
2022-10-31T04:37:26.932Z,97558.47
2022-10-31T04:40:29.256Z,97558.78
2022-10-31T04:43:49.448Z,97551.88
2022-10-31T04:46:52.276Z,97551.34
2022-10-31T04:49:53.779Z,97555.66
2022-10-31T04:52:56.538Z,97547.06
2022-10-31T04:56:02.133Z,97550.19
2022-10-31T04:59:12.431Z,97555.34
2022-10-31T05:02:22.305Z,97556.63
2022-10-31T05:05:32.273Z,97548.56
2022-10-31T05:08:36.213Z,97549.91
2022-10-31T05:11:42.899Z,97545.28
2022-10-31T05:14:59.218Z,97546.09
2022-10-31T05:18:35.913Z,97546.91
2022-10-31T05:21:55.609Z,97540.81
2022-10-31T05:24:58.226Z,97540.16
2022-10-31T05:28:00.219Z,97542.63
2022-10-31T05:31:02.057Z,97547.06
2022-10-31T05:34:03.776Z,97540.63
2022-10-31T05:37:29.393Z,97542.59
2022-10-31T05:40:31.206Z,97539.66
2022-10-31T05:43:32.708Z,97545.28
2022-10-31T05:46:35.547Z,97539.47
2022-10-31T05:49:46.166Z,97537.00
2022-10-31T05:53:19.775Z,97539.50
2022-10-31T05:56:21.291Z,97535.84
2022-10-31T05:59:23.002Z,97539.34
2022-10-31T06:02:24.628Z,97545.09
2022-10-31T06:05:50.599Z,97541.28
2022-10-31T06:08:56.024Z,97543.44
2022-10-31T06:11:57.971Z,97546.22
2022-10-31T06:14:59.446Z,97546.56
2022-10-31T06:18:03.878Z,97541.78
2022-10-31T06:21:11.510Z,97542.25
2022-10-31T06:24:15.985Z,97541.25
2022-10-31T06:27:29.452Z,97549.19
2022-10-31T06:30:32.745Z,97535.66
2022-10-31T06:33:35.008Z,97536.94
2022-10-31T06:36:37.081Z,97538.09
2022-10-31T06:39:39.551Z,97531.94
2022-10-31T06:42:41.354Z,97534.91
2022-10-31T06:45:44.697Z,97543.00
2022-10-31T06:49:12.426Z,97540.47
2022-10-31T06:52:24.332Z,97538.50
2022-10-31T06:55:27.306Z,97538.13
2022-10-31T06:58:28.958Z,97549.34
2022-10-31T07:01:34.878Z,97544.69
2022-10-31T07:04:36.849Z,97539.34
2022-10-31T07:07:38.881Z,97540.13
2022-10-31T07:10:42.671Z,97549.66
2022-10-31T07:13:45.006Z,97551.91
2022-10-31T07:16:51.500Z,97561.28
2022-10-31T07:19:58.320Z,97553.47
2022-10-31T07:23:00.262Z,97544.47
2022-10-31T07:26:03.065Z,97554.81
2022-10-31T07:29:14.879Z,97551.72
2022-10-31T07:32:16.503Z,97555.44
2022-10-31T07:35:26.378Z,97561.31
2022-10-31T07:38:36.739Z,97565.19
2022-10-31T07:41:39.722Z,97567.88
2022-10-31T07:44:41.220Z,97559.69
2022-10-31T07:48:17.678Z,97562.22
2022-10-31T07:51:38.942Z,97561.88
2022-10-31T07:55:11.566Z,97563.59
2022-10-31T07:58:15.207Z,97569.06
2022-10-31T08:01:16.800Z,97571.50
2022-10-31T08:04:27.416Z,97571.03
2022-10-31T08:07:47.331Z,97570.16
2022-10-31T08:10:55.843Z,97563.53
2022-10-31T08:13:57.331Z,97562.31
2022-10-31T08:16:59.064Z,97571.19
2022-10-31T08:20:09.157Z,97566.03
2022-10-31T08:23:18.075Z,97575.53
2022-10-31T08:26:20.023Z,97565.47
2022-10-31T08:29:21.634Z,97568.00
2022-10-31T08:32:23.249Z,97557.63
2022-10-31T08:35:27.892Z,97551.75
2022-10-31T08:38:49.492Z,97550.19
2022-10-31T08:41:56.255Z,97549.03
2022-10-31T08:44:58.483Z,97543.31
2022-10-31T08:48:05.969Z,97547.69
2022-10-31T08:51:08.108Z,97540.31
2022-10-31T08:54:09.734Z,97538.72
2022-10-31T08:57:11.216Z,97549.44
2022-10-31T09:00:16.845Z,97543.91
2022-10-31T09:03:37.903Z,97533.28
2022-10-31T09:06:46.389Z,97536.56
2022-10-31T09:09:57.414Z,97517.28
2022-10-31T09:13:00.723Z,97520.97
2022-10-31T09:16:02.239Z,97518.50
2022-10-31T09:19:08.689Z,97515.59
2022-10-31T09:22:12.672Z,97506.50
2022-10-31T09:25:14.838Z,97507.09
2022-10-31T09:28:22.492Z,97508.47
2022-10-31T09:31:24.125Z,97499.16
2022-10-31T09:34:25.781Z,97497.25
2022-10-31T09:37:47.725Z,97499.69
2022-10-31T09:41:02.290Z,97489.13
2022-10-31T09:44:47.639Z,97487.22
2022-10-31T09:47:58.553Z,97476.09
2022-10-31T09:51:11.159Z,97496.00
2022-10-31T09:54:48.401Z,97493.13
2022-10-31T09:57:50.063Z,97497.00
2022-10-31T10:00:54.470Z,97499.06
2022-10-31T10:04:02.244Z,97492.41
2022-10-31T10:07:50.371Z,97489.94
2022-10-31T10:11:45.015Z,97489.34
2022-10-31T10:15:27.666Z,97487.50
2022-10-31T10:18:39.255Z,97483.31
2022-10-31T10:21:58.917Z,97481.25
2022-10-31T10:25:14.927Z,97476.47
2022-10-31T10:28:39.298Z,97475.97
2022-10-31T10:31:46.819Z,97471.34
2022-10-31T10:35:18.162Z,97472.47
2022-10-31T10:38:43.985Z,97480.03
2022-10-31T10:42:10.286Z,97473.59
2022-10-31T10:45:35.602Z,97470.44
2022-10-31T10:48:54.817Z,97479.97
2022-10-31T10:52:40.762Z,97471.81
2022-10-31T10:55:51.453Z,97479.69
2022-10-31T10:58:55.514Z,97470.13
2022-10-31T11:01:57.107Z,97487.41
2022-10-31T11:05:01.508Z,97492.50
2022-10-31T11:08:04.501Z,97495.38
2022-10-31T11:11:31.936Z,97482.00
2022-10-31T11:14:43.304Z,97476.56
2022-10-31T11:17:50.467Z,97472.94
2022-10-31T11:20:55.408Z,97471.47
2022-10-31T11:24:12.402Z,97471.44
2022-10-31T11:27:22.093Z,97461.03
2022-10-31T11:30:23.657Z,97463.91
2022-10-31T11:33:38.735Z,97438.59
2022-10-31T11:36:44.780Z,97437.00
2022-10-31T11:39:54.354Z,97442.13
2022-10-31T11:42:59.801Z,97433.81
2022-10-31T11:46:12.870Z,97422.31
2022-10-31T11:49:44.834Z,97418.56
2022-10-31T11:52:46.663Z,97420.09
2022-10-31T11:55:49.143Z,97401.19
2022-10-31T11:59:15.739Z,97396.38
2022-10-31T12:02:20.218Z,97384.25
2022-10-31T12:05:30.258Z,97379.81
2022-10-31T12:08:36.369Z,97368.28
2022-10-31T12:12:12.232Z,97362.19
2022-10-31T12:15:34.501Z,97350.91
2022-10-31T12:19:02.496Z,97332.84
2022-10-31T12:22:25.763Z,97329.69
2022-10-31T12:25:46.456Z,97314.03
2022-10-31T12:29:23.308Z,97312.56
2022-10-31T12:33:03.569Z,97307.53
2022-10-31T12:36:21.440Z,97299.84
2022-10-31T12:39:31.522Z,97306.34
2022-10-31T12:42:36.470Z,97300.53
2022-10-31T12:45:52.787Z,97302.53
2022-10-31T12:49:13.285Z,97300.63
2022-10-31T12:52:20.772Z,97299.97
2022-10-31T12:55:32.698Z,97292.38
2022-10-31T12:58:48.595Z,97275.91
2022-10-31T13:02:17.181Z,97278.84
2022-10-31T13:05:23.479Z,97257.47
2022-10-31T13:08:36.746Z,97248.47
2022-10-31T13:11:43.488Z,97243.66
2022-10-31T13:14:54.301Z,97242.44
2022-10-31T13:18:00.390Z,97242.59
2022-10-31T13:21:09.389Z,97240.97
2022-10-31T13:24:17.430Z,97237.44
2022-10-31T13:27:25.864Z,97245.25
2022-10-31T13:30:39.566Z,97244.47
2022-10-31T13:33:47.561Z,97231.59
2022-10-31T13:37:32.007Z,97229.16
2022-10-31T13:40:39.330Z,97229.50
2022-10-31T13:43:59.498Z,97223.44
2022-10-31T13:47:01.109Z,97214.53
2022-10-31T13:50:26.266Z,97207.50
2022-10-31T13:53:58.954Z,97204.41
2022-10-31T13:57:00.975Z,97204.69
2022-10-31T14:00:22.108Z,97196.94
2022-10-31T14:03:57.573Z,97203.31
2022-10-31T14:07:08.696Z,97199.22
2022-10-31T14:10:31.178Z,97193.50
2022-10-31T14:13:42.532Z,97184.56
2022-10-31T14:16:46.670Z,97184.44
2022-10-31T14:20:26.855Z,97171.56
2022-10-31T14:23:31.810Z,97167.31
2022-10-31T14:26:35.691Z,97158.94
2022-10-31T14:29:37.306Z,97162.13
2022-10-31T14:32:39.847Z,97160.94
2022-10-31T14:35:56.558Z,97155.69
2022-10-31T14:39:49.448Z,97143.34
2022-10-31T14:43:20.064Z,97144.09
2022-10-31T14:46:51.497Z,97142.94
2022-10-31T14:50:14.534Z,97144.34
2022-10-31T14:53:21.907Z,97144.94
2022-10-31T14:56:29.933Z,97134.16
2022-10-31T14:59:36.169Z,97133.75
2022-10-31T15:02:55.756Z,97135.38
2022-10-31T15:06:03.064Z,97135.03
2022-10-31T15:09:04.719Z,97132.16
2022-10-31T15:12:29.398Z,97145.31
2022-10-31T15:15:32.607Z,97142.22
2022-10-31T15:18:34.151Z,97131.13
2022-10-31T15:21:47.275Z,97142.09
2022-10-31T15:24:49.886Z,97128.47
2022-10-31T15:27:53.261Z,97127.97
2022-10-31T15:30:56.812Z,97128.94
2022-10-31T15:34:06.379Z,97142.00
2022-10-31T15:37:14.642Z,97138.41
2022-10-31T15:40:19.647Z,97130.50
2022-10-31T15:43:21.335Z,97141.50
2022-10-31T15:46:28.170Z,97140.97
2022-10-31T15:49:38.353Z,97152.47
2022-10-31T15:52:48.021Z,97149.69
2022-10-31T15:56:02.477Z,97148.53
2022-10-31T15:59:04.099Z,97143.63
2022-10-31T16:02:11.662Z,97140.66
2022-10-31T16:05:20.000Z,97150.41
2022-10-31T16:08:30.660Z,97146.81
2022-10-31T16:11:37.999Z,97132.81
2022-10-31T16:14:42.246Z,97155.25
2022-10-31T16:17:47.369Z,97159.41
2022-10-31T16:20:53.438Z,97156.44
2022-10-31T16:24:05.784Z,97165.50
2022-10-31T16:27:18.944Z,97167.78
2022-10-31T16:30:48.006Z,97183.22
2022-10-31T16:33:50.140Z,97181.00
2022-10-31T16:36:51.876Z,97193.31
2022-10-31T16:39:53.464Z,97192.50
2022-10-31T16:42:58.522Z,97186.38
2022-10-31T16:46:08.888Z,97188.47
2022-10-31T16:49:10.810Z,97213.69
2022-10-31T16:52:12.341Z,97215.53
2022-10-31T16:55:15.613Z,97221.66
2022-10-31T16:58:24.885Z,97214.28
2022-10-31T17:01:29.487Z,97204.03
2022-10-31T17:04:31.225Z,97208.13
2022-10-31T17:07:32.833Z,97227.19
2022-10-31T17:10:34.902Z,97233.53
2022-10-31T17:13:36.426Z,97234.31
2022-10-31T17:16:38.154Z,97232.69
2022-10-31T17:19:39.646Z,97247.44
2022-10-31T17:22:41.325Z,97238.84
2022-10-31T17:25:44.015Z,97232.69
2022-10-31T17:28:46.316Z,97242.91
2022-10-31T17:31:47.910Z,97251.06
2022-10-31T17:34:49.450Z,97256.34
2022-10-31T17:37:51.082Z,97243.44
2022-10-31T17:40:52.639Z,97239.13
2022-10-31T17:43:58.086Z,97249.75
2022-10-31T17:46:59.620Z,97255.25
2022-10-31T17:50:01.501Z,97265.03
2022-10-31T17:53:03.527Z,97284.03
2022-10-31T17:56:07.519Z,97275.00
2022-10-31T17:59:09.243Z,97276.22
2022-10-31T18:02:11.843Z,97291.72
2022-10-31T18:05:13.878Z,97268.38
2022-10-31T18:08:15.365Z,97264.59
2022-10-31T18:11:20.592Z,97289.31
2022-10-31T18:14:22.265Z,97238.03
2022-10-31T18:17:24.295Z,97265.78
2022-10-31T18:20:25.808Z,97280.28
2022-10-31T18:23:27.380Z,97269.47
2022-10-31T18:26:29.182Z,97276.41
2022-10-31T18:29:30.680Z,97275.41
2022-10-31T18:32:32.258Z,97270.66
2022-10-31T18:35:37.775Z,97275.75
2022-10-31T18:38:40.986Z,97278.16
2022-10-31T18:41:42.793Z,97272.56
2022-10-31T18:44:44.321Z,97276.63
2022-10-31T18:47:45.850Z,97266.78
2022-10-31T18:50:47.401Z,97265.13
2022-10-31T18:53:53.684Z,97265.13
2022-10-31T18:56:55.930Z,97263.69
2022-10-31T18:59:57.531Z,97248.50
2022-10-31T19:02:59.291Z,97239.47
2022-10-31T19:06:07.465Z,97234.69
2022-10-31T19:09:09.822Z,97228.50
2022-10-31T19:12:11.752Z,97228.59
2022-10-31T19:15:13.295Z,97227.41
2022-10-31T19:18:14.855Z,97223.13
2022-10-31T19:21:18.073Z,97219.47
2022-10-31T19:24:19.635Z,97218.63
2022-10-31T19:27:21.279Z,97221.09
2022-10-31T19:30:22.978Z,97224.78
2022-10-31T19:33:34.870Z,97226.22
2022-10-31T19:36:38.056Z,97224.38
2022-10-31T19:39:43.985Z,97231.31
2022-10-31T19:42:48.141Z,97237.38
2022-10-31T19:46:00.775Z,97223.94
2022-10-31T19:49:02.335Z,97223.50
2022-10-31T19:52:04.132Z,97228.38
2022-10-31T19:55:06.015Z,97231.03
2022-10-31T19:58:08.081Z,97224.69
2022-10-31T20:01:15.032Z,97218.09
2022-10-31T20:04:16.590Z,97218.47
2022-10-31T20:07:20.878Z,97227.44
2022-10-31T20:10:22.610Z,97227.19
2022-10-31T20:13:24.535Z,97223.91
2022-10-31T20:16:27.317Z,97226.94
2022-10-31T20:19:28.967Z,97222.56
2022-10-31T20:22:30.604Z,97221.94
2022-10-31T20:25:33.189Z,97223.69
2022-10-31T20:28:37.609Z,97220.00
2022-10-31T20:31:44.314Z,97213.28
2022-10-31T20:34:45.906Z,97220.84
2022-10-31T20:37:47.371Z,97225.31
2022-10-31T20:40:48.877Z,97232.63
2022-10-31T20:43:50.395Z,97235.28
2022-10-31T20:46:52.918Z,97230.44
2022-10-31T20:49:54.494Z,97235.91
2022-10-31T20:52:56.599Z,97238.56
2022-10-31T20:56:15.754Z,97229.34
2022-10-31T20:59:19.353Z,97237.94
2022-10-31T21:02:20.983Z,97228.72
2022-10-31T21:05:22.531Z,97231.00
2022-10-31T21:08:24.865Z,97227.50
2022-10-31T21:11:29.290Z,97213.44
2022-10-31T21:14:30.804Z,97220.41
2022-10-31T21:17:32.283Z,97214.22
2022-10-31T21:20:33.828Z,97222.78
2022-10-31T21:23:35.527Z,97232.56
2022-10-31T21:26:41.933Z,97235.22
2022-10-31T21:29:43.558Z,97231.09
2022-10-31T21:32:45.047Z,97219.50
2022-10-31T21:35:52.847Z,97230.09
2022-10-31T21:38:55.642Z,97221.53
2022-10-31T21:41:57.195Z,97226.44
2022-10-31T21:44:58.688Z,97214.66
2022-10-31T21:48:02.780Z,97211.25
2022-10-31T21:51:05.237Z,97221.59
2022-10-31T21:54:25.142Z,97211.44
2022-10-31T21:57:26.689Z,97223.69
2022-10-31T22:00:28.153Z,97227.41
2022-10-31T22:03:29.747Z,97223.38
2022-10-31T22:06:31.381Z,97219.09
2022-10-31T22:09:33.132Z,97224.84
2022-10-31T22:12:34.583Z,97221.00
2022-10-31T22:15:36.074Z,97222.63
2022-10-31T22:18:38.741Z,97224.63
2022-10-31T22:21:43.049Z,97225.66
2022-10-31T22:24:44.571Z,97231.97
2022-10-31T22:27:46.095Z,97228.13
2022-10-31T22:30:47.599Z,97235.25
2022-10-31T22:33:50.238Z,97221.19
2022-10-31T22:36:53.970Z,97222.84
2022-10-31T22:39:55.427Z,97220.53
2022-10-31T22:42:56.943Z,97219.66
2022-10-31T22:46:02.545Z,97219.91
2022-10-31T22:49:07.002Z,97211.59
2022-10-31T22:52:08.704Z,97214.66
2022-10-31T22:55:10.229Z,97204.72
2022-10-31T22:58:12.123Z,97200.59
2022-10-31T23:01:16.757Z,97194.94
2022-10-31T23:04:18.432Z,97196.94
2022-10-31T23:07:23.104Z,97198.97
2022-10-31T23:10:33.059Z,97199.34
2022-10-31T23:13:53.280Z,97189.94
2022-10-31T23:16:56.516Z,97192.34
2022-10-31T23:19:58.142Z,97196.16
2022-10-31T23:22:59.916Z,97191.06
2022-10-31T23:26:20.623Z,97186.94
2022-10-31T23:29:22.184Z,97186.94
2022-10-31T23:32:27.634Z,97195.72
2022-10-31T23:35:29.172Z,97193.06
2022-10-31T23:38:30.703Z,97193.28
2022-10-31T23:41:32.211Z,97194.91
2022-10-31T23:44:33.728Z,97193.91
2022-10-31T23:47:38.339Z,97189.41
2022-10-31T23:50:42.222Z,97184.75
2022-10-31T23:53:45.538Z,97183.94
2022-10-31T23:56:47.073Z,97181.09
2022-10-31T23:59:48.547Z,97188.28
